createdAt,value
2022-12-19T00:01:26.450Z,24.13
2022-12-19T00:03:56.611Z,24.23
2022-12-19T00:06:26.376Z,23.47
2022-12-19T00:08:55.849Z,24.43
2022-12-19T00:11:27.129Z,24.50
2022-12-19T00:13:55.949Z,23.23
2022-12-19T00:16:26.128Z,25.23
2022-12-19T00:18:56.345Z,24.07
2022-12-19T00:21:26.711Z,25.27
2022-12-19T00:23:55.413Z,23.35
2022-12-19T00:26:27.223Z,23.77
2022-12-19T00:28:58.229Z,23.83
2022-12-19T00:31:28.085Z,23.13
2022-12-19T00:33:57.142Z,23.70
2022-12-19T00:36:28.092Z,24.77
2022-12-19T00:38:59.063Z,24.87
2022-12-19T00:41:30.953Z,24.30
2022-12-19T00:44:01.116Z,25.37
2022-12-19T00:46:30.936Z,23.67
2022-12-19T00:48:59.812Z,24.43
2022-12-19T00:51:30.633Z,24.20
2022-12-19T00:53:59.853Z,23.33
2022-12-19T00:56:37.792Z,24.17
2022-12-19T00:59:08.963Z,24.73
2022-12-19T01:01:40.419Z,22.55
2022-12-19T01:04:28.127Z,23.50
2022-12-19T01:07:02.117Z,23.53
2022-12-19T01:09:34.095Z,23.83
2022-12-19T01:12:24.401Z,23.30
2022-12-19T01:15:03.776Z,23.60
2022-12-19T01:17:44.311Z,22.33
2022-12-19T01:20:15.048Z,24.73
2022-12-19T01:22:43.655Z,24.52
2022-12-19T01:25:15.757Z,22.95
2022-12-19T01:27:45.802Z,23.20
2022-12-19T01:30:14.899Z,24.75
2022-12-19T01:32:43.934Z,23.80
2022-12-19T01:35:21.801Z,22.70
2022-12-19T01:37:51.622Z,23.30
2022-12-19T01:40:21.502Z,22.73
2022-12-19T01:42:51.437Z,23.25
2022-12-19T01:45:34.462Z,22.83
2022-12-19T01:48:19.682Z,22.03
2022-12-19T01:51:00.836Z,23.15
2022-12-19T01:53:45.168Z,22.85
2022-12-19T01:56:21.005Z,23.20
2022-12-19T01:59:01.764Z,23.50
2022-12-19T02:01:47.048Z,23.50
2022-12-19T02:04:25.261Z,23.48
2022-12-19T02:06:56.106Z,22.52
2022-12-19T02:09:26.669Z,24.08
2022-12-19T02:11:55.568Z,22.35
2022-12-19T02:14:27.326Z,23.70
2022-12-19T02:17:02.000Z,24.13
2022-12-19T02:20:09.668Z,23.55
2022-12-19T02:22:52.665Z,24.30
2022-12-19T02:25:51.290Z,23.90
2022-12-19T02:28:56.078Z,22.58
2022-12-19T02:31:31.587Z,23.60
2022-12-19T02:34:09.651Z,22.35
2022-12-19T02:36:51.687Z,22.45
2022-12-19T02:39:27.910Z,22.20
2022-12-19T02:42:00.693Z,22.70
2022-12-19T02:44:33.591Z,25.17
2022-12-19T02:47:06.443Z,22.27
2022-12-19T02:49:38.794Z,23.27
2022-12-19T02:52:12.140Z,22.35
2022-12-19T02:54:45.123Z,22.23
2022-12-19T02:57:22.452Z,23.75
2022-12-19T02:59:58.973Z,25.00
2022-12-19T03:02:37.135Z,23.10
2022-12-19T03:05:15.334Z,23.33
2022-12-19T03:07:51.446Z,23.10
2022-12-19T03:10:27.308Z,25.05
2022-12-19T03:13:01.784Z,22.25
2022-12-19T03:15:30.809Z,24.20
2022-12-19T03:18:02.109Z,24.13
2022-12-19T03:20:45.501Z,26.55
2022-12-19T03:23:14.947Z,24.13
2022-12-19T03:25:47.479Z,24.45
2022-12-19T03:28:24.466Z,24.88
2022-12-19T03:30:54.970Z,23.90
2022-12-19T03:33:29.955Z,22.98
2022-12-19T03:36:00.908Z,23.77
2022-12-19T03:38:30.182Z,24.67
2022-12-19T03:41:00.857Z,24.17
2022-12-19T03:43:29.176Z,24.80
2022-12-19T03:45:59.499Z,24.50
2022-12-19T03:48:36.101Z,23.60
2022-12-19T03:51:11.447Z,23.08
2022-12-19T03:53:52.053Z,23.55
2022-12-19T03:56:32.130Z,23.48
2022-12-19T03:59:06.105Z,24.85
2022-12-19T04:01:36.304Z,24.15
2022-12-19T04:04:07.458Z,24.58
2022-12-19T04:06:36.851Z,23.60
2022-12-19T04:09:05.863Z,23.98
2022-12-19T04:11:39.174Z,24.58
2022-12-19T04:14:13.361Z,24.35
2022-12-19T04:16:48.768Z,25.48
2022-12-19T04:19:25.050Z,24.40
2022-12-19T04:21:58.681Z,21.85
2022-12-19T04:24:32.105Z,23.92
2022-12-19T04:27:02.991Z,25.10
2022-12-19T04:29:35.137Z,24.10
2022-12-19T04:32:05.442Z,23.90
2022-12-19T04:34:38.938Z,22.55
2022-12-19T04:37:12.367Z,23.23
2022-12-19T04:39:41.116Z,23.88
2022-12-19T04:42:09.707Z,22.48
2022-12-19T04:44:38.353Z,24.25
2022-12-19T04:47:07.022Z,24.45
2022-12-19T04:49:36.962Z,25.95
2022-12-19T04:52:05.844Z,25.10
2022-12-19T04:54:36.641Z,24.65
2022-12-19T04:57:05.309Z,25.52
2022-12-19T04:59:33.949Z,25.95
2022-12-19T05:02:02.601Z,26.80
2022-12-19T05:04:31.343Z,25.92
2022-12-19T05:07:01.255Z,24.30
2022-12-19T05:09:29.879Z,24.88
2022-12-19T05:11:58.407Z,24.50
2022-12-19T05:14:26.927Z,23.88
2022-12-19T05:17:01.104Z,24.67
2022-12-19T05:19:30.737Z,24.25
2022-12-19T05:22:00.815Z,22.88
2022-12-19T05:24:29.928Z,24.73
2022-12-19T05:26:58.469Z,25.13
2022-12-19T05:29:27.107Z,25.20
2022-12-19T05:31:55.762Z,25.60
2022-12-19T05:34:25.613Z,24.63
2022-12-19T05:36:54.200Z,24.17
2022-12-19T05:39:24.614Z,23.63
2022-12-19T05:41:53.195Z,24.85
2022-12-19T05:44:21.954Z,26.23
2022-12-19T05:46:50.551Z,25.38
2022-12-19T05:49:19.104Z,25.33
2022-12-19T05:51:48.126Z,24.70
2022-12-19T05:54:16.746Z,25.05
2022-12-19T05:56:46.655Z,25.17
2022-12-19T05:59:15.208Z,24.40
2022-12-19T06:01:43.857Z,23.90
2022-12-19T06:04:12.441Z,24.48
2022-12-19T06:06:41.485Z,24.58
2022-12-19T06:09:10.089Z,25.92
2022-12-19T06:11:38.730Z,23.05
2022-12-19T06:14:08.684Z,23.75
2022-12-19T06:16:37.245Z,24.13
2022-12-19T06:19:05.891Z,23.00
2022-12-19T06:21:34.482Z,23.02
2022-12-19T06:24:03.024Z,25.77
2022-12-19T06:26:31.861Z,23.30
2022-12-19T06:29:00.445Z,23.05
2022-12-19T06:31:30.444Z,23.38
2022-12-19T06:33:59.108Z,21.25
2022-12-19T06:36:29.740Z,23.92
2022-12-19T06:38:58.889Z,22.90
2022-12-19T06:41:45.672Z,25.02
2022-12-19T06:44:16.436Z,22.63
2022-12-19T06:46:46.400Z,22.52
2022-12-19T06:49:15.088Z,22.20
2022-12-19T06:51:43.733Z,22.42
2022-12-19T06:54:12.394Z,22.02
2022-12-19T06:56:43.068Z,20.63
2022-12-19T06:59:14.462Z,22.35
2022-12-19T07:01:56.888Z,23.33
2022-12-19T07:04:30.410Z,21.75
2022-12-19T07:06:59.872Z,21.92
2022-12-19T07:09:31.428Z,23.92
2022-12-19T07:11:59.943Z,23.30
2022-12-19T07:14:28.533Z,24.55
2022-12-19T07:17:01.098Z,24.10
2022-12-19T07:19:31.619Z,23.20
2022-12-19T07:22:01.889Z,23.73
2022-12-19T07:24:30.867Z,24.85
2022-12-19T07:26:59.560Z,22.63
2022-12-19T07:29:28.150Z,22.92
2022-12-19T07:31:58.168Z,24.00
2022-12-19T07:34:26.745Z,24.73
2022-12-19T07:36:55.504Z,27.05
2022-12-19T07:39:24.305Z,26.25
2022-12-19T07:41:52.817Z,25.42
2022-12-19T07:44:31.817Z,23.33
2022-12-19T07:47:01.901Z,23.02
2022-12-19T07:49:30.627Z,25.40
2022-12-19T07:51:59.506Z,25.88
2022-12-19T07:54:28.173Z,25.88
2022-12-19T07:56:56.700Z,24.67
2022-12-19T07:59:30.384Z,23.65
2022-12-19T08:02:02.368Z,20.55
2022-12-19T08:04:31.421Z,19.75
2022-12-19T08:07:00.040Z,20.35
2022-12-19T08:09:28.683Z,22.48
2022-12-19T08:11:57.834Z,22.35
2022-12-19T08:14:26.545Z,21.35
2022-12-19T08:17:19.831Z,20.55
2022-12-19T08:19:45.296Z,21.15
2022-12-19T08:22:13.957Z,23.13
2022-12-19T08:24:42.485Z,24.17
2022-12-19T08:27:11.870Z,23.88
2022-12-19T08:29:40.455Z,25.17
2022-12-19T08:32:08.968Z,25.58
2022-12-19T08:34:37.473Z,23.48
2022-12-19T08:37:07.493Z,24.60
2022-12-19T08:39:36.102Z,24.27
2022-12-19T08:42:05.092Z,24.85
2022-12-19T08:44:33.748Z,23.38
2022-12-19T08:47:02.339Z,24.25
2022-12-19T08:49:30.955Z,21.85
2022-12-19T08:51:59.590Z,22.63
2022-12-19T08:54:29.663Z,23.38
2022-12-19T08:56:58.912Z,22.67
2022-12-19T08:59:31.734Z,24.70
2022-12-19T09:02:01.696Z,22.77
2022-12-19T09:06:00.116Z,23.67
2022-12-19T09:07:19.552Z,22.50
2022-12-19T09:09:49.427Z,23.85
2022-12-19T09:12:17.996Z,22.33
2022-12-19T09:14:46.743Z,23.30
2022-12-19T09:17:15.473Z,21.63
2022-12-19T09:19:47.839Z,22.50
2022-12-19T09:22:17.509Z,22.25
2022-12-19T09:24:46.971Z,22.55
2022-12-19T09:27:17.116Z,22.88
2022-12-19T09:29:46.033Z,22.55
2022-12-19T09:32:14.592Z,21.65
2022-12-19T09:34:43.106Z,22.13
2022-12-19T09:37:17.230Z,21.23
2022-12-19T09:39:47.159Z,21.30
2022-12-19T09:42:40.767Z,20.52
2022-12-19T09:45:28.186Z,21.70
2022-12-19T09:48:02.317Z,21.10
2022-12-19T09:50:37.853Z,21.95
2022-12-19T09:53:26.667Z,20.45
2022-12-19T09:55:55.509Z,20.63
2022-12-19T09:58:38.485Z,22.63
2022-12-19T10:01:15.519Z,20.75
2022-12-19T10:03:48.272Z,20.73
2022-12-19T10:07:22.025Z,21.50
2022-12-19T10:10:58.079Z,21.33
2022-12-19T10:12:45.783Z,21.88
2022-12-19T10:15:18.839Z,22.33
2022-12-19T10:18:06.148Z,19.55
2022-12-19T10:20:38.495Z,20.35
2022-12-19T10:23:25.904Z,20.23
2022-12-19T10:26:01.203Z,20.08
2022-12-19T10:28:57.681Z,21.67
2022-12-19T10:31:34.447Z,20.60
2022-12-19T10:34:13.454Z,21.50
2022-12-19T10:37:19.052Z,21.13
2022-12-19T10:39:56.061Z,21.20
2022-12-19T10:42:33.240Z,21.67
2022-12-19T10:45:09.990Z,19.63
2022-12-19T10:47:41.735Z,21.30
2022-12-19T10:50:13.561Z,22.17
2022-12-19T10:52:49.064Z,22.75
2022-12-19T10:55:39.991Z,22.10
2022-12-19T10:58:19.026Z,21.85
2022-12-19T11:00:59.130Z,21.52
2022-12-19T11:03:29.729Z,22.67
2022-12-19T11:05:59.166Z,21.55
2022-12-19T11:08:29.208Z,21.67
2022-12-19T11:12:32.305Z,20.58
2022-12-19T11:18:51.997Z,20.40
2022-12-19T11:25:24.858Z,20.65
2022-12-19T11:29:26.118Z,20.77
2022-12-19T11:29:40.287Z,21.38
2022-12-19T11:30:05.876Z,19.70
2022-12-19T11:30:35.209Z,20.90
2022-12-19T11:34:05.950Z,20.13
2022-12-19T11:36:42.080Z,19.67
2022-12-19T11:39:17.729Z,19.10
2022-12-19T11:42:01.720Z,20.27
2022-12-19T11:44:35.589Z,20.48
2022-12-19T11:47:12.287Z,19.35
2022-12-19T11:49:47.039Z,19.20
2022-12-19T11:55:21.185Z,19.70
2022-12-19T11:57:49.976Z,19.30
2022-12-19T12:00:21.548Z,19.80
2022-12-19T12:03:26.664Z,20.15
2022-12-19T12:05:58.379Z,20.02
2022-12-19T12:09:27.092Z,20.25
2022-12-19T12:18:29.830Z,19.52
2022-12-19T12:24:45.549Z,18.38
2022-12-19T12:31:01.332Z,18.60
2022-12-19T12:31:51.158Z,17.92
2022-12-19T12:31:56.856Z,17.95
2022-12-19T12:32:02.750Z,19.15
2022-12-19T12:35:09.401Z,18.63
2022-12-19T12:35:47.062Z,16.75
2022-12-19T12:38:47.202Z,19.48
2022-12-19T12:41:47.154Z,19.15
2022-12-19T12:44:16.536Z,18.55
2022-12-19T12:46:49.978Z,18.65
2022-12-19T12:49:33.547Z,18.48
2022-12-19T12:52:04.313Z,18.15
2022-12-19T12:54:36.287Z,16.73
2022-12-19T12:57:06.965Z,16.08
2022-12-19T12:59:35.562Z,17.60
2022-12-19T13:02:15.881Z,17.52
2022-12-19T13:04:56.156Z,17.23
2022-12-19T13:07:42.310Z,16.42
2022-12-19T13:10:22.406Z,15.93
2022-12-19T13:13:00.638Z,16.58
2022-12-19T13:15:44.668Z,15.32
2022-12-19T13:18:29.822Z,15.68
2022-12-19T13:20:59.697Z,16.08
2022-12-19T13:23:45.374Z,14.57
2022-12-19T13:26:49.379Z,14.32
2022-12-19T13:32:54.428Z,13.68
2022-12-19T13:39:13.687Z,12.75
2022-12-19T13:39:49.873Z,12.50
2022-12-19T13:41:46.003Z,12.40
2022-12-19T13:44:14.927Z,12.43
2022-12-19T13:46:45.553Z,11.93
2022-12-19T13:49:18.977Z,11.82
2022-12-19T13:51:50.557Z,12.05
2022-12-19T13:54:22.827Z,11.80
2022-12-19T13:56:52.773Z,11.98
2022-12-19T13:59:23.491Z,11.15
2022-12-19T14:01:54.271Z,10.35
2022-12-19T14:04:28.968Z,11.27
2022-12-19T14:07:02.788Z,11.23
2022-12-19T14:11:32.403Z,11.38
2022-12-19T14:14:01.048Z,12.02
2022-12-19T14:15:34.843Z,12.10
2022-12-19T14:18:42.292Z,12.52
2022-12-19T14:22:04.873Z,11.88
2022-12-19T14:24:18.000Z,12.88
2022-12-19T14:28:25.081Z,11.82
2022-12-19T14:30:29.329Z,11.00
2022-12-19T14:33:45.706Z,12.48
2022-12-19T14:36:07.919Z,11.32
2022-12-19T14:39:25.134Z,12.27
2022-12-19T14:41:37.844Z,11.25
2022-12-19T14:52:53.652Z,11.82
2022-12-19T14:53:51.549Z,11.23
2022-12-19T14:54:11.219Z,12.23
2022-12-19T14:54:33.977Z,11.63
2022-12-19T14:56:19.781Z,11.40
2022-12-19T14:58:53.835Z,11.23
2022-12-19T15:01:27.056Z,11.32
2022-12-19T15:04:52.890Z,11.73
2022-12-19T15:07:09.060Z,11.38
2022-12-19T15:11:03.349Z,11.85
2022-12-19T15:14:55.373Z,12.13
2022-12-19T15:15:59.180Z,11.82
2022-12-19T15:18:38.137Z,11.98
2022-12-19T15:21:08.654Z,11.73
2022-12-19T15:23:37.296Z,11.90
2022-12-19T15:26:08.850Z,12.23
2022-12-19T15:28:43.229Z,11.10
2022-12-19T15:31:26.514Z,11.65
2022-12-19T15:36:43.915Z,12.63
2022-12-19T15:39:12.500Z,12.90
2022-12-19T15:41:41.715Z,12.25
2022-12-19T15:44:16.790Z,12.75
2022-12-19T15:46:49.351Z,11.68
2022-12-19T15:49:19.811Z,12.05
2022-12-19T15:51:49.232Z,13.13
2022-12-19T15:57:07.391Z,11.32
2022-12-19T15:59:40.012Z,12.20
2022-12-19T16:02:18.207Z,11.95
2022-12-19T16:04:48.792Z,11.07
2022-12-19T16:07:18.784Z,11.07
2022-12-19T16:09:47.920Z,11.07
2022-12-19T16:12:19.955Z,11.15
2022-12-19T16:14:53.526Z,10.88
2022-12-19T16:17:25.394Z,11.40
2022-12-19T16:19:53.901Z,10.32
2022-12-19T16:22:24.432Z,10.80
2022-12-19T16:24:53.997Z,9.77
2022-12-19T16:27:26.893Z,9.95
2022-12-19T16:29:56.821Z,9.75
2022-12-19T16:32:26.892Z,10.10
2022-12-19T16:34:55.520Z,8.98
2022-12-19T16:37:31.822Z,9.55
2022-12-19T16:40:02.009Z,9.68
2022-12-19T16:42:31.257Z,9.00
2022-12-19T16:44:59.948Z,8.98
2022-12-19T16:47:29.882Z,8.32
2022-12-19T16:49:58.943Z,8.55
2022-12-19T16:52:27.512Z,8.23
2022-12-19T16:54:56.144Z,8.70
2022-12-19T16:57:24.771Z,7.93
2022-12-19T16:59:53.303Z,8.55
2022-12-19T17:02:54.060Z,10.20
2022-12-19T17:05:26.382Z,9.07
2022-12-19T17:07:55.368Z,9.50
2022-12-19T17:10:29.805Z,9.25
2022-12-19T17:13:00.104Z,9.38
2022-12-19T17:15:30.292Z,9.50
2022-12-19T17:18:02.216Z,10.27
2022-12-19T17:20:38.403Z,9.85
2022-12-19T17:23:14.207Z,10.05
2022-12-19T17:25:43.024Z,9.45
2022-12-19T17:28:12.661Z,10.80
2022-12-19T17:30:42.727Z,9.30
2022-12-19T17:33:15.375Z,9.57
2022-12-19T17:35:45.842Z,8.35
2022-12-19T17:38:15.676Z,7.82
2022-12-19T17:40:45.219Z,7.93
2022-12-19T17:43:14.408Z,9.10
2022-12-19T17:45:43.185Z,9.77
2022-12-19T17:48:22.354Z,10.02
2022-12-19T17:50:52.736Z,9.82
2022-12-19T17:53:21.809Z,10.10
2022-12-19T17:55:50.850Z,9.00
2022-12-19T17:58:19.769Z,8.88
2022-12-19T18:00:55.004Z,8.95
2022-12-19T18:03:25.453Z,8.93
2022-12-19T18:05:56.497Z,8.95
2022-12-19T18:08:28.273Z,8.93
2022-12-19T18:11:00.438Z,8.77
2022-12-19T18:13:30.987Z,8.57
2022-12-19T18:16:02.140Z,8.80
2022-12-19T18:18:32.915Z,8.07
2022-12-19T18:21:03.431Z,7.18
2022-12-19T18:23:32.070Z,7.53
2022-12-19T18:26:02.998Z,7.13
2022-12-19T18:28:31.666Z,8.18
2022-12-19T18:31:02.785Z,7.13
2022-12-19T18:33:38.775Z,6.63
2022-12-19T18:36:16.082Z,6.53
2022-12-19T18:38:44.714Z,7.63
2022-12-19T18:41:13.735Z,7.03
2022-12-19T18:43:42.199Z,7.15
2022-12-19T18:46:14.647Z,7.00
2022-12-19T18:48:44.777Z,7.43
2022-12-19T18:51:17.287Z,7.22
2022-12-19T18:53:47.396Z,7.65
2022-12-19T18:56:16.204Z,6.80
2022-12-19T18:58:44.712Z,7.07
2022-12-19T19:01:16.519Z,6.63
2022-12-19T19:03:49.617Z,6.53
2022-12-19T19:06:21.936Z,7.15
2022-12-19T19:08:52.064Z,6.25
2022-12-19T19:11:30.928Z,6.22
2022-12-19T19:13:59.468Z,6.03
2022-12-19T19:16:28.798Z,6.32
2022-12-19T19:18:59.406Z,6.28
2022-12-19T19:21:33.448Z,6.28
2022-12-19T19:24:06.884Z,6.18
2022-12-19T19:26:35.580Z,6.30
2022-12-19T19:29:04.797Z,6.07
2022-12-19T19:31:37.799Z,5.35
2022-12-19T19:34:12.229Z,5.78
2022-12-19T19:36:44.965Z,6.93
2022-12-19T19:39:14.788Z,6.10
2022-12-19T19:41:43.496Z,6.15
2022-12-19T19:44:11.993Z,6.13
2022-12-19T19:46:40.596Z,6.78
2022-12-19T19:49:09.127Z,7.60
2022-12-19T19:51:39.326Z,6.20
2022-12-19T19:54:09.778Z,5.22
2022-12-19T19:56:38.370Z,4.07
2022-12-19T19:59:07.824Z,3.50
2022-12-19T20:01:36.579Z,3.60
2022-12-19T20:04:05.936Z,3.80
2022-12-19T20:06:34.908Z,3.85
2022-12-19T20:09:03.475Z,3.30
2022-12-19T20:11:33.375Z,3.42
2022-12-19T20:14:02.398Z,3.45
2022-12-19T20:16:31.487Z,3.13
2022-12-19T20:19:00.321Z,3.15
2022-12-19T20:21:30.612Z,3.53
2022-12-19T20:23:59.149Z,3.42
2022-12-19T20:26:27.912Z,3.33
2022-12-19T20:28:57.758Z,3.45
2022-12-19T20:31:26.336Z,3.33
2022-12-19T20:33:56.218Z,3.35
2022-12-19T20:36:25.227Z,3.30
2022-12-19T20:38:53.834Z,2.97
2022-12-19T20:41:22.769Z,2.88
2022-12-19T20:43:52.929Z,3.00
2022-12-19T20:46:23.548Z,3.17
2022-12-19T20:48:52.620Z,2.90
2022-12-19T20:51:25.163Z,3.28
2022-12-19T20:53:54.780Z,3.38
2022-12-19T20:56:25.702Z,3.22
2022-12-19T20:58:54.320Z,3.33
2022-12-19T21:01:26.133Z,2.83
2022-12-19T21:03:54.936Z,3.30
2022-12-19T21:06:27.059Z,3.17
2022-12-19T21:08:57.633Z,2.92
2022-12-19T21:11:27.248Z,3.15
2022-12-19T21:13:55.924Z,2.85
2022-12-19T21:16:27.181Z,3.20
2022-12-19T21:18:55.790Z,2.83
2022-12-19T21:21:26.473Z,2.80
2022-12-19T21:23:56.234Z,2.97
2022-12-19T21:26:26.023Z,2.78
2022-12-19T21:28:55.033Z,3.10
2022-12-19T21:31:28.027Z,2.85
2022-12-19T21:33:58.216Z,3.35
2022-12-19T21:36:27.925Z,2.80
2022-12-19T21:38:59.159Z,3.00
2022-12-19T21:41:27.997Z,2.67
2022-12-19T21:43:57.456Z,3.08
2022-12-19T21:46:29.205Z,2.70
2022-12-19T21:48:58.551Z,2.83
2022-12-19T21:51:29.340Z,2.75
2022-12-19T21:54:00.371Z,2.78
2022-12-19T21:56:30.852Z,2.60
2022-12-19T21:59:01.791Z,2.85
2022-12-19T22:01:32.721Z,2.47
2022-12-19T22:04:02.332Z,2.58
2022-12-19T22:06:32.745Z,2.40
2022-12-19T22:09:02.254Z,2.63
2022-12-19T22:11:31.603Z,2.83
2022-12-19T22:14:01.211Z,2.53
2022-12-19T22:16:31.562Z,2.13
2022-12-19T22:19:00.667Z,2.38
2022-12-19T22:21:29.615Z,3.05
2022-12-19T22:23:59.005Z,2.58
2022-12-19T22:26:29.535Z,2.38
2022-12-19T22:28:58.858Z,2.35
2022-12-19T22:31:29.534Z,2.58
2022-12-19T22:34:01.116Z,2.38
2022-12-19T22:36:31.951Z,2.65
2022-12-19T22:39:02.285Z,2.40
2022-12-19T22:41:31.467Z,2.10
2022-12-19T22:44:00.266Z,2.20
2022-12-19T22:46:31.858Z,2.10
2022-12-19T22:49:04.176Z,2.33
2022-12-19T22:51:34.709Z,2.13
2022-12-19T22:54:04.512Z,2.30
2022-12-19T22:56:34.352Z,2.17
2022-12-19T22:59:05.319Z,2.15
2022-12-19T23:01:36.766Z,2.00
2022-12-19T23:04:09.544Z,2.25
2022-12-19T23:06:39.223Z,2.08
2022-12-19T23:09:09.860Z,2.53
2022-12-19T23:11:41.338Z,1.95
2022-12-19T23:14:14.641Z,2.00
2022-12-19T23:16:43.817Z,2.10
2022-12-19T23:19:15.439Z,2.03
2022-12-19T23:21:44.479Z,2.00
2022-12-19T23:24:13.642Z,2.10
2022-12-19T23:26:42.245Z,1.65
2022-12-19T23:29:12.852Z,2.30
2022-12-19T23:31:42.259Z,1.70
2022-12-19T23:34:11.448Z,1.88
2022-12-19T23:39:30.100Z,1.90
2022-12-19T23:41:58.589Z,1.88
2022-12-19T23:44:27.471Z,2.00
2022-12-19T23:47:02.705Z,1.85
2022-12-19T23:49:32.237Z,1.75
2022-12-19T23:52:02.438Z,2.03
2022-12-19T23:54:31.290Z,2.00
2022-12-19T23:56:59.868Z,1.85
2022-12-19T23:59:28.416Z,1.90
